Deneb Leader — 3EKQ — position and weather

sailwx.info

Track history (hours):
 
Tides and Currents Weather Stations Pressure Air Temp Water Temp Dewpoint Dewpoint Depression Visibility Wind Speed Wind Dir Waves Ship Positions

Deneb Leader

Last reported at 2017-Nov-18 02:28 UTC. Time now 2017-Nov-24 07:08 UTC.
Position N 01°18' E 103°20'.

Length 199 m; draft 10 m.

Type: Cargo ship. MMSI: 356688000.

Date/timePositionNaut miles runAvg speedWind from/ knotsBaromVisibWave heightAir tempDewpointWater temp
2017-Nov-18 02:28N 01°18' E 103°20'715.5
2017-Nov-18 01:59N 01°14' E 103°27'715.6
2017-Nov-18 01:30N 01°12' E 103°34'511.0
2017-Nov-18 01:00N 01°12' E 103°40'611.1
2017-Nov-18 00:30N 01°16' E 103°44'2 3.6
2017-Nov-18 00:00N 01°17' E 103°45'0 0.1
2017-Nov-17 23:28N 01°17' E 103°45'0 0.1
2017-Nov-17 22:52N 01°17' E 103°45'0 0.2
2017-Nov-17 22:28N 01°17' E 103°45'0 0.0
2017-Nov-17 22:00N 01°17' E 103°45'0 0.0
2017-Nov-17 21:31N 01°17' E 103°45'0 0.0
2017-Nov-17 21:01N 01°17' E 103°45'0 0.0
2017-Nov-17 20:31N 01°17' E 103°45'0 0.1
2017-Nov-17 20:01N 01°17' E 103°45'0 0.0
2017-Nov-17 19:30N 01°17' E 103°45'0 0.1
2017-Nov-17 19:00N 01°17' E 103°45'0 0.1
2017-Nov-17 18:30N 01°17' E 103°45'0 0.0
2017-Nov-17 18:01N 01°17' E 103°45'0 0.0
2017-Nov-17 17:30N 01°17' E 103°45'0 0.0
2017-Nov-17 17:00N 01°17' E 103°45'0 0.0
2017-Nov-17 16:31N 01°17' E 103°45'0 0.1
2017-Nov-17 16:01N 01°17' E 103°45'0 0.0
2017-Nov-17 15:30N 01°17' E 103°45'0 0.0
2017-Nov-17 15:01N 01°17' E 103°45'0 0.1
2017-Nov-17 14:30N 01°17' E 103°45'0 0.0
2017-Nov-17 14:00N 01°17' E 103°45'0 0.1
2017-Nov-17 13:30N 01°17' E 103°45'0 0.1
2017-Nov-17 13:00N 01°17' E 103°45'0 0.0
2017-Nov-17 12:30N 01°17' E 103°45'0 0.0
2017-Nov-17 12:00N 01°17' E 103°45'0 0.1
2017-Nov-17 11:31N 01°17' E 103°45'0 0.1
2017-Nov-17 11:00N 01°17' E 103°45'0 0.1
2017-Nov-17 10:30N 01°17' E 103°45'0 0.0
2017-Nov-17 10:01N 01°17' E 103°45'0 0.5
2017-Nov-17 09:31N 01°17' E 103°45'3 6.6
2017-Nov-17 09:00N 01°14' E 103°47'5 9.3
2017-Nov-17 08:30N 01°13' E 103°51'3 5.8
2017-Nov-17 08:00N 01°14' E 103°54'2 4.9
2017-Nov-17 07:30N 01°14' E 103°56'5 9.1
2017-Nov-17 07:00N 01°15' E 104°01'510.3
2017-Nov-17 06:28N 01°16' E 104°06'  
2017-Nov-10 03:59N 22°38' E 119°49'1218.0
2017-Nov-10 03:18N 22°50' E 119°49'  
Track history (hours):
 
Tides and Currents Weather Stations Pressure Air Temp Water Temp Dewpoint Dewpoint Depression Visibility Wind Speed Wind Dir Waves Ship Positions

Deneb Leader

Last reported at 2017-Nov-18 02:28 UTC. Time now 2017-Nov-24 07:08 UTC.
Position N 01°18' E 103°20'.

Length 199 m; draft 10 m.

Type: Cargo ship. MMSI: 356688000.

Date/timePositionNaut miles runAvg speedWind from/ knotsBaromVisibWave heightAir tempDewpointWater temp
2017-Nov-18 02:28N 01°18' E 103°20'715.5
2017-Nov-18 01:59N 01°14' E 103°27'715.6
2017-Nov-18 01:30N 01°12' E 103°34'511.0
2017-Nov-18 01:00N 01°12' E 103°40'611.1
2017-Nov-18 00:30N 01°16' E 103°44'2 3.6
2017-Nov-18 00:00N 01°17' E 103°45'0 0.1
2017-Nov-17 23:28N 01°17' E 103°45'0 0.1
2017-Nov-17 22:52N 01°17' E 103°45'0 0.2
2017-Nov-17 22:28N 01°17' E 103°45'0 0.0
2017-Nov-17 22:00N 01°17' E 103°45'0 0.0
2017-Nov-17 21:31N 01°17' E 103°45'0 0.0
2017-Nov-17 21:01N 01°17' E 103°45'0 0.0
2017-Nov-17 20:31N 01°17' E 103°45'0 0.1
2017-Nov-17 20:01N 01°17' E 103°45'0 0.0
2017-Nov-17 19:30N 01°17' E 103°45'0 0.1
2017-Nov-17 19:00N 01°17' E 103°45'0 0.1
2017-Nov-17 18:30N 01°17' E 103°45'0 0.0
2017-Nov-17 18:01N 01°17' E 103°45'0 0.0
2017-Nov-17 17:30N 01°17' E 103°45'0 0.0
2017-Nov-17 17:00N 01°17' E 103°45'0 0.0
2017-Nov-17 16:31N 01°17' E 103°45'0 0.1
2017-Nov-17 16:01N 01°17' E 103°45'0 0.0
2017-Nov-17 15:30N 01°17' E 103°45'0 0.0
2017-Nov-17 15:01N 01°17' E 103°45'0 0.1
2017-Nov-17 14:30N 01°17' E 103°45'0 0.0
2017-Nov-17 14:00N 01°17' E 103°45'0 0.1
2017-Nov-17 13:30N 01°17' E 103°45'0 0.1
2017-Nov-17 13:00N 01°17' E 103°45'0 0.0
2017-Nov-17 12:30N 01°17' E 103°45'0 0.0
2017-Nov-17 12:00N 01°17' E 103°45'0 0.1
2017-Nov-17 11:31N 01°17' E 103°45'0 0.1
2017-Nov-17 11:00N 01°17' E 103°45'0 0.1
2017-Nov-17 10:30N 01°17' E 103°45'0 0.0
2017-Nov-17 10:01N 01°17' E 103°45'0 0.5
2017-Nov-17 09:31N 01°17' E 103°45'3 6.6
2017-Nov-17 09:00N 01°14' E 103°47'5 9.3
2017-Nov-17 08:30N 01°13' E 103°51'3 5.8
2017-Nov-17 08:00N 01°14' E 103°54'2 4.9
2017-Nov-17 07:30N 01°14' E 103°56'5 9.1
2017-Nov-17 07:00N 01°15' E 104°01'510.3
2017-Nov-17 06:28N 01°16' E 104°06'  
2017-Nov-10 03:59N 22°38' E 119°49'1218.0
2017-Nov-10 03:18N 22°50' E 119°49'  

Dump ship's entire track history